Time;durP1;ratioP1;P1;durP2;ratioP2;P2;SDS_P1;SDS_P2;PMS_P1;PMS_P2;Temp;Humidity;BMP_temperature;BMP_pressure;BME280_temperature;BME280_humidity;BME280_pressure;Samples;Min_cycle;Max_cycle;Signal;HPM_P1;HPM_P2
2022/08/20 00:00:13;;;;;;;;;;;;;;;22.75;68.67;100977.50;5037957;28;20012;-64
2022/08/20 00:02:46;;;;;;;;;;;;;;;22.77;68.67;100975.50;5033663;28;19924;-64
2022/08/20 00:05:11;;;;;;;;;;;;;;;22.79;68.63;100971.63;5026031;28;19928;-66
2022/08/20 00:07:37;;;;;;;;;;;;;;;22.79;68.50;100971.63;5032923;28;20157;-66
2022/08/20 00:10:05;;;;;;;;;;;;;;;22.79;68.62;100968.13;5035265;28;19925;-65
2022/08/20 00:12:31;;;;;;;;;;;;;;;22.76;68.28;100955.03;5022214;28;19943;-62
2022/08/20 00:14:56;;;;;;;;;;;;;;;22.67;68.65;100954.16;5030131;28;19924;-65
2022/08/20 00:17:22;;;;;;;;;;;;;;;22.62;68.97;100946.63;5040147;28;19929;-62
2022/08/20 00:19:47;;;;;;;;;;;;;;;22.58;68.78;100952.47;5044766;28;20371;-63
2022/08/20 00:22:12;;;;;;;;;;;;;;;22.53;69.04;100944.91;5041028;28;19951;-66
2022/08/20 00:24:38;;;;;;;;;;;;;;;22.50;69.16;100954.09;5032060;28;19925;-66
2022/08/20 00:27:04;;;;;;;;;;;;;;;22.44;69.32;100944.06;5040905;28;19927;-65
2022/08/20 00:29:29;;;;;;;;;;;;;;;22.40;69.16;100942.66;5038889;28;19925;-59
2022/08/20 00:31:54;;;;;;;;;;;;;;;22.32;69.40;100938.09;5045613;28;20030;-62
2022/08/20 00:34:20;;;;;;;;;;;;;;;22.27;69.33;100945.78;5045043;28;19935;-63
2022/08/20 00:36:45;;;;;;;;;;;;;;;22.21;69.69;100946.44;5045431;28;19932;-64
2022/08/20 00:39:11;;;;;;;;;;;;;;;22.18;69.78;100944.91;5045411;28;19932;-65
2022/08/20 00:41:36;;;;;;;;;;;;;;;22.16;69.81;100949.56;5041864;28;19955;-61
2022/08/20 00:44:10;;;;;;;;;;;;;;;22.15;69.93;100949.75;5040908;28;19967;-65
2022/08/20 00:46:37;;;;;;;;;;;;;;;22.12;69.99;100964.31;5045598;28;19924;-66
2022/08/20 00:49:06;;;;;;;;;;;;;;;22.09;70.17;100972.66;5042266;28;19921;-66
2022/08/20 00:51:41;;;;;;;;;;;;;;;22.11;70.17;100977.84;5047852;28;19924;-65
2022/08/20 00:54:06;;;;;;;;;;;;;;;22.14;69.99;100975.72;5045829;28;20459;-58
2022/08/20 00:56:32;;;;;;;;;;;;;;;22.11;70.05;100967.13;5039425;28;20036;-63
2022/08/20 00:58:58;;;;;;;;;;;;;;;22.07;70.45;100972.84;5041750;28;19932;-65
2022/08/20 01:01:24;;;;;;;;;;;;;;;22.05;70.11;100965.94;5044724;28;19924;-61
2022/08/20 01:03:54;;;;;;;;;;;;;;;22.04;70.40;100966.94;5041225;28;20298;-64
2022/08/20 01:06:20;;;;;;;;;;;;;;;22.02;70.38;100967.09;5043679;28;19974;-65
2022/08/20 01:08:45;;;;;;;;;;;;;;;22.03;70.54;100967.91;5042406;28;19929;-60
2022/08/20 01:11:20;;;;;;;;;;;;;;;22.03;70.52;100967.91;5042253;28;20011;-65
2022/08/20 01:13:45;;;;;;;;;;;;;;;22.02;70.30;100976.97;5040436;28;20032;-62
2022/08/20 01:16:20;;;;;;;;;;;;;;;22.00;70.58;100973.63;5039815;28;20048;-65
2022/08/20 01:18:47;;;;;;;;;;;;;;;21.97;70.70;100981.97;5046119;28;19924;-64
2022/08/20 01:21:13;;;;;;;;;;;;;;;21.96;71.07;100985.66;5044426;28;20330;-62
2022/08/20 01:23:52;;;;;;;;;;;;;;;21.99;70.96;100980.81;5043363;28;20415;-64
2022/08/20 01:26:21;;;;;;;;;;;;;;;22.03;71.03;100971.47;5046569;28;19924;-63
2022/08/20 01:28:46;;;;;;;;;;;;;;;22.07;70.63;100972.84;5041189;28;20269;-66
2022/08/20 01:31:19;;;;;;;;;;;;;;;22.10;70.69;100966.31;5039390;28;19925;-63
2022/08/20 01:33:45;;;;;;;;;;;;;;;22.11;70.67;100968.00;5038149;28;19959;-61
2022/08/20 01:36:10;;;;;;;;;;;;;;;;;;5040593;28;19971;-64
2022/08/20 01:38:36;;;;;;;;;;;;;;;22.20;70.63;100977.75;5041586;28;19931;-64
2022/08/20 01:41:17;;;;;;;;;;;;;;;22.23;70.38;100982.78;5033882;28;19968;-65
2022/08/20 01:43:44;;;;;;;;;;;;;;;22.26;70.40;100981.63;5039815;28;20306;-62
2022/08/20 01:46:10;;;;;;;;;;;;;;;22.30;70.30;100988.34;5036859;28;19978;-63
2022/08/20 01:48:37;;;;;;;;;;;;;;;22.35;70.33;100995.91;5039370;28;20355;-63
2022/08/20 01:51:05;;;;;;;;;;;;;;;22.39;70.49;101002.63;5041047;28;20520;-64
2022/08/20 01:53:33;;;;;;;;;;;;;;;22.41;70.20;101000.63;5037405;28;19941;-63
2022/08/20 01:56:03;;;;;;;;;;;;;;;22.45;70.23;101006.53;5040822;28;19929;-66
2022/08/20 01:58:29;;;;;;;;;;;;;;;22.48;70.25;101001.69;5040829;28;20396;-65
2022/08/20 02:00:55;;;;;;;;;;;;;;;22.52;70.00;100997.69;5034408;28;19931;-62
2022/08/20 02:03:20;;;;;;;;;;;;;;;22.55;70.00;100998.38;5043427;28;20762;-63
2022/08/20 02:05:46;;;;;;;;;;;;;;;22.57;69.90;100996.38;5039146;28;19929;-63
2022/08/20 02:08:11;;;;;;;;;;;;;;;22.60;69.93;101006.78;5041559;28;20300;-65
2022/08/20 02:10:36;;;;;;;;;;;;;;;22.62;69.85;101002.06;5038318;28;20023;-65
2022/08/20 02:13:04;;;;;;;;;;;;;;;22.63;69.73;101007.28;5040571;28;19932;-62
2022/08/20 02:15:29;;;;;;;;;;;;;;;22.64;69.67;101006.31;5039045;28;19916;-66
2022/08/20 02:17:56;;;;;;;;;;;;;;;22.67;69.79;101007.81;5041613;28;19994;-62
2022/08/20 02:20:25;;;;;;;;;;;;;;;22.69;69.59;101011.16;5042849;28;19931;-66
2022/08/20 02:22:53;;;;;;;;;;;;;;;22.68;69.65;101006.81;5039664;28;19925;-63
2022/08/20 02:25:20;;;;;;;;;;;;;;;22.67;69.46;101010.50;5037048;28;19932;-61
2022/08/20 02:27:45;;;;;;;;;;;;;;;22.64;69.48;101008.97;5039013;28;20496;-65
2022/08/20 02:30:14;;;;;;;;;;;;;;;22.61;69.44;101011.97;5043375;28;19920;-62
2022/08/20 02:32:40;;;;;;;;;;;;;;;22.59;69.77;101013.16;5042253;28;20758;-62
2022/08/20 02:35:07;;;;;;;;;;;;;;;22.57;69.72;101017.81;5038489;28;19924;-63
2022/08/20 02:37:33;;;;;;;;;;;;;;;22.55;69.72;101014.47;5037074;28;20436;-59
2022/08/20 02:39:58;;;;;;;;;;;;;;;22.51;69.77;101005.91;5038328;28;19924;-64
2022/08/20 02:42:25;;;;;;;;;;;;;;;22.49;69.70;101005.22;5040231;28;20030;-62
2022/08/20 02:44:50;;;;;;;;;;;;;;;22.51;69.81;101019.31;5044900;28;19928;-64
2022/08/20 02:47:16;;;;;;;;;;;;;;;22.53;69.93;101015.47;5036371;28;19917;-61
2022/08/20 02:49:41;;;;;;;;;;;;;;;22.56;69.64;101011.59;5042166;28;20336;-62
2022/08/20 02:52:06;;;;;;;;;;;;;;;22.56;69.80;101003.56;5037962;28;19928;-65
2022/08/20 02:54:32;;;;;;;;;;;;;;;22.56;69.84;101005.41;5037744;28;19935;-64
2022/08/20 02:56:57;;;;;;;;;;;;;;;22.52;69.51;101003.06;5039979;28;20706;-62
2022/08/20 02:59:22;;;;;;;;;;;;;;;22.50;69.88;101007.72;5052422;28;20368;-61
2022/08/20 03:01:48;;;;;;;;;;;;;;;22.50;70.12;101007.72;5039295;28;19928;-63
2022/08/20 03:04:13;;;;;;;;;;;;;;;22.52;70.02;100994.19;5031697;28;20467;-62
2022/08/20 03:06:39;;;;;;;;;;;;;;;22.54;69.77;100984.13;5035760;28;19924;-59
2022/08/20 03:09:06;;;;;;;;;;;;;;;22.55;69.66;100987.66;5036882;28;19928;-62
2022/08/20 03:11:35;;;;;;;;;;;;;;;22.51;69.80;100984.47;5033426;28;21692;-63
2022/08/20 03:14:00;;;;;;;;;;;;;;;22.47;69.86;100983.91;5036623;28;19925;-60
2022/08/20 03:16:25;;;;;;;;;;;;;;;22.45;70.04;100982.41;5037624;28;19960;-63
2022/08/20 03:18:51;;;;;;;;;;;;;;;22.44;70.09;100978.91;5040439;28;20307;-64
2022/08/20 03:21:16;;;;;;;;;;;;;;;22.44;70.08;100968.19;5033469;28;19925;-65
2022/08/20 03:23:41;;;;;;;;;;;;;;;22.45;69.86;100969.88;5053222;28;19968;-62
2022/08/20 03:26:09;;;;;;;;;;;;;;;22.47;70.01;100970.50;5035579;28;20315;-62
2022/08/20 03:28:34;;;;;;;;;;;;;;;22.46;69.82;100982.25;5040315;28;19925;-60
2022/08/20 03:31:00;;;;;;;;;;;;;;;22.43;69.89;100971.00;5037039;28;19943;-64
2022/08/20 03:33:26;;;;;;;;;;;;;;;22.42;70.04;100977.38;5037570;28;19924;-64
2022/08/20 03:35:52;;;;;;;;;;;;;;;22.41;70.07;100976.50;5043443;28;19916;-64
2022/08/20 03:38:18;;;;;;;;;;;;;;;22.39;70.23;100975.81;5036608;28;19946;-65
2022/08/20 03:40:44;;;;;;;;;;;;;;;22.37;70.04;100975.13;5040806;28;20025;-61
2022/08/20 03:43:10;;;;;;;;;;;;;;;22.35;70.19;100969.09;5035388;28;19925;-61
2022/08/20 03:45:36;;;;;;;;;;;;;;;22.29;70.20;100967.06;5034987;28;19921;-62
2022/08/20 03:48:02;;;;;;;;;;;;;;;22.21;70.73;100970.56;5038080;28;20333;-63
2022/08/20 03:50:28;;;;;;;;;;;;;;;;;;5040010;28;19928;-64
2022/08/20 03:52:54;;;;;;;;;;;;;;;22.14;70.90;100967.69;5034151;28;19916;-63
2022/08/20 03:55:21;;;;;;;;;;;;;;;22.14;70.84;100973.03;5038191;28;20392;-62
2022/08/20 03:57:48;;;;;;;;;;;;;;;22.13;71.01;100970.50;5052552;28;19978;-64
2022/08/20 04:00:14;;;;;;;;;;;;;;;22.12;70.83;100980.38;5036991;28;19951;-60
2022/08/20 04:02:40;;;;;;;;;;;;;;;22.12;70.75;100982.22;5037931;28;20275;-61
2022/08/20 04:05:06;;;;;;;;;;;;;;;22.10;70.78;100985.06;5038523;28;20370;-59
2022/08/20 04:07:31;;;;;;;;;;;;;;;22.09;71.04;100996.78;5037222;28;19916;-62
2022/08/20 04:09:56;;;;;;;;;;;;;;;22.05;70.83;100990.91;5038277;28;20212;-65
2022/08/20 04:12:23;;;;;;;;;;;;;;;21.98;71.33;101002.41;5034327;28;19971;-64
2022/08/20 04:14:49;;;;;;;;;;;;;;;21.92;71.33;100990.50;5041680;28;19913;-63
2022/08/20 04:17:15;;;;;;;;;;;;;;;21.88;71.15;100994.47;5034975;28;20308;-58
2022/08/20 04:19:40;;;;;;;;;;;;;;;21.82;71.37;100995.94;5036919;28;20438;-63
2022/08/20 04:22:06;;;;;;;;;;;;;;;21.78;71.57;101006.09;5038814;28;19920;-62
2022/08/20 04:24:32;;;;;;;;;;;;;;;21.74;71.49;101011.94;5036940;28;20008;-64
2022/08/20 04:26:58;;;;;;;;;;;;;;;21.68;71.89;101001.84;5041353;28;20494;-62
2022/08/20 04:29:24;;;;;;;;;;;;;;;21.62;72.10;101006.00;5036795;28;20323;-63
2022/08/20 04:31:50;;;;;;;;;;;;;;;21.58;72.13;101013.44;5042710;28;19916;-61
2022/08/20 04:34:17;;;;;;;;;;;;;;;21.57;71.88;101013.63;5037264;28;19932;-62
2022/08/20 04:36:46;;;;;;;;;;;;;;;21.56;72.16;101009.25;5035336;28;20005;-62
2022/08/20 04:39:12;;;;;;;;;;;;;;;21.54;72.09;101008.56;5037834;28;20415;-63
2022/08/20 04:41:37;;;;;;;;;;;;;;;21.56;72.21;101014.59;5034983;28;20553;-63
2022/08/20 04:44:02;;;;;;;;;;;;;;;21.57;72.06;101011.75;5040910;28;20019;-62
2022/08/20 04:46:28;;;;;;;;;;;;;;;21.54;71.95;101009.41;5044013;28;20358;-64
2022/08/20 04:48:54;;;;;;;;;;;;;;;21.52;72.04;101013.22;5039133;28;20387;-62
2022/08/20 04:51:19;;;;;;;;;;;;;;;21.49;72.33;101006.34;5034507;28;20424;-63
2022/08/20 04:53:45;;;;;;;;;;;;;;;21.47;72.17;101011.88;5029583;28;19921;-61
2022/08/20 04:56:11;;;;;;;;;;;;;;;21.47;72.50;101008.34;5034902;28;19933;-62
2022/08/20 04:58:37;;;;;;;;;;;;;;;21.46;72.59;101014.69;5032856;28;20491;-62
2022/08/20 05:01:04;;;;;;;;;;;;;;;21.44;72.56;101014.00;5035576;28;19935;-63
2022/08/20 05:03:30;;;;;;;;;;;;;;;21.41;72.70;101011.63;5037925;28;19943;-62
2022/08/20 05:05:56;;;;;;;;;;;;;;;21.40;72.88;101010.78;5035538;28;19921;-61
2022/08/20 05:08:22;;;;;;;;;;;;;;;21.41;72.88;101014.28;5036179;28;19924;-64
2022/08/20 05:10:48;;;;;;;;;;;;;;;21.43;72.51;101015.84;5041782;28;19925;-61
2022/08/20 05:13:14;;;;;;;;;;;;;;;21.44;72.86;101019.34;5039636;28;20431;-61
2022/08/20 05:15:39;;;;;;;;;;;;;;;21.43;72.59;101017.66;5037698;28;20266;-60
2022/08/20 05:18:06;;;;;;;;;;;;;;;21.44;72.76;101016.66;5043604;28;20188;-63
2022/08/20 05:20:39;;;;;;;;;;;;;;;21.44;72.79;101019.34;5044397;28;19925;-60
2022/08/20 05:23:05;;;;;;;;;;;;;;;21.45;72.58;101023.72;5040014;28;19963;-61
2022/08/20 05:25:34;;;;;;;;;;;;;;;21.44;72.65;101025.56;5039462;28;20384;-63
2022/08/20 05:28:01;;;;;;;;;;;;;;;21.44;72.79;101032.72;5044772;28;19925;-62
2022/08/20 05:30:32;;;;;;;;;;;;;;;21.43;72.80;101034.59;5039635;28;19924;-65
2022/08/20 05:33:04;;;;;;;;;;;;;;;21.43;72.58;101033.72;5044751;28;19928;-63
2022/08/20 05:35:32;;;;;;;;;;;;;;;21.44;72.91;101038.09;5044345;28;19920;-63
2022/08/20 05:37:57;;;;;;;;;;;;;;;21.44;72.99;101041.63;5036316;28;20444;-64
2022/08/20 05:40:23;;;;;;;;;;;;;;;21.46;72.92;101036.09;5041618;28;19924;-61
2022/08/20 05:42:49;;;;;;;;;;;;;;;21.48;72.90;101036.78;5042904;28;19927;-62
2022/08/20 05:45:15;;;;;;;;;;;;;;;21.53;72.90;101045.22;5040243;28;19916;-64
2022/08/20 05:47:41;;;;;;;;;;;;;;;21.55;72.66;101053.94;5038559;28;19924;-63
2022/08/20 05:50:08;;;;;;;;;;;;;;;21.53;72.64;101050.56;5036300;28;19960;-64
2022/08/20 05:52:33;;;;;;;;;;;;;;;21.50;72.81;101047.34;5038426;28;19921;-62
2022/08/20 05:54:58;;;;;;;;;;;;;;;21.47;72.77;101048.50;5041156;28;19931;-61
2022/08/20 05:57:23;;;;;;;;;;;;;;;21.47;73.02;101048.50;5037356;28;19929;-58
2022/08/20 05:59:49;;;;;;;;;;;;;;;21.46;73.02;101055.69;5041412;28;19939;-64
2022/08/20 06:04:58;;;;;;;;;;;;;;;21.47;73.15;101051.16;5041015;28;20094;-61
2022/08/20 06:07:23;;;;;;;;;;;;;;;21.48;73.02;101042.97;5050310;22;20379;-59
2022/08/20 06:09:49;;;;;;;;;;;;;;;21.47;73.16;101041.31;5028833;28;19987;-57
2022/08/20 06:12:15;;;;;;;;;;;;;;;21.49;73.47;101054.53;5030002;28;19925;-60
2022/08/20 06:14:41;;;;;;;;;;;;;;;21.49;73.13;101046.50;5038048;28;19924;-60
2022/08/20 06:17:10;;;;;;;;;;;;;;;21.50;73.30;101047.34;5044848;28;19928;-59
2022/08/20 06:19:37;;;;;;;;;;;;;;;21.50;73.38;101045.53;5020308;28;19925;-59
2022/08/20 06:22:03;;;;;;;;;;;;;;;21.52;73.47;101042.69;5023790;28;19963;-60
2022/08/20 06:24:28;;;;;;;;;;;;;;;21.53;73.39;101045.22;5020719;28;20362;-60
2022/08/20 06:27:00;;;;;;;;;;;;;;;21.57;73.49;101046.56;5019540;28;19964;-60
2022/08/20 06:29:26;;;;;;;;;;;;;;;21.59;73.34;101051.78;5017175;28;19917;-61
2022/08/20 06:31:52;;;;;;;;;;;;;;;21.57;73.32;101049.25;5008907;28;19929;-58
2022/08/20 06:34:17;;;;;;;;;;;;;;;21.56;73.60;101055.59;5010671;28;19936;-61
2022/08/20 06:36:46;;;;;;;;;;;;;;;21.58;73.54;101052.78;5019978;28;19929;-58
2022/08/20 06:39:14;;;;;;;;;;;;;;;21.58;73.90;101056.28;5020726;28;19925;-56
2022/08/20 06:41:40;;;;;;;;;;;;;;;21.61;73.82;101063.22;5018849;28;19926;-58
2022/08/20 06:44:08;;;;;;;;;;;;;;;21.65;73.44;101069.09;5022304;28;19928;-57
2022/08/20 06:46:34;;;;;;;;;;;;;;;21.64;73.66;101075.44;5025039;28;19917;-59
2022/08/20 06:49:00;;;;;;;;;;;;;;;21.62;73.57;101070.25;5020531;28;19980;-57
2022/08/20 06:51:25;;;;;;;;;;;;;;;21.62;73.93;101076.44;5021433;28;20462;-60
2022/08/20 06:53:51;;;;;;;;;;;;;;;21.63;73.91;101071.91;5021974;28;20368;-57
2022/08/20 06:56:16;;;;;;;;;;;;;;;21.64;73.99;101078.13;5020188;28;20398;-59
2022/08/20 06:58:42;;;;;;;;;;;;;;;21.62;73.97;101081.81;5012648;28;19977;-60
2022/08/20 07:01:09;;;;;;;;;;;;;;;21.61;74.12;101074.75;5012809;28;19925;-59
2022/08/20 07:03:36;;;;;;;;;;;;;;;21.64;73.80;101072.78;5006808;28;20101;-57
2022/08/20 07:06:02;;;;;;;;;;;;;;;21.61;73.85;101082.78;5013666;28;19952;-58
2022/08/20 07:08:27;;;;;;;;;;;;;;;21.60;74.12;101094.50;5013142;28;20388;-58
2022/08/20 07:10:53;;;;;;;;;;;;;;;21.59;73.86;101082.06;5012675;28;20316;-58
2022/08/20 07:13:18;;;;;;;;;;;;;;;21.59;74.10;101079.38;5011152;28;19925;-56
2022/08/20 07:15:43;;;;;;;;;;;;;;;21.57;73.88;101073.34;5014410;28;19925;-58
2022/08/20 07:18:10;;;;;;;;;;;;;;;21.56;74.13;101077.00;5014237;28;19982;-56
2022/08/20 07:20:37;;;;;;;;;;;;;;;21.55;74.35;101080.72;5013552;28;20174;-57
2022/08/20 07:23:02;;;;;;;;;;;;;;;21.58;74.19;101074.19;5011136;28;19976;-56
2022/08/20 07:25:29;;;;;;;;;;;;;;;21.60;74.22;101083.78;4994488;28;20452;-58
2022/08/20 07:27:59;;;;;;;;;;;;;;;21.61;74.12;101093.50;5009820;28;20051;-58
2022/08/20 07:33:09;;;;;;;;;;;;;;;21.64;74.29;101094.19;5013773;28;20019;-57
2022/08/20 07:35:34;;;;;;;;;;;;;;;21.64;73.87;101094.19;5012357;28;20531;-59
2022/08/20 07:38:00;;;;;;;;;;;;;;;21.64;74.09;101096.88;5013731;28;19924;-62
2022/08/20 07:40:29;;;;;;;;;;;;;;;21.69;74.04;101099.94;5011972;28;19932;-60
2022/08/20 07:42:55;;;;;;;;;;;;;;;21.71;73.88;101100.59;5010123;28;19926;-57
2022/08/20 07:45:21;;;;;;;;;;;;;;;21.70;74.06;101104.31;5022639;28;19999;-56
2022/08/20 07:47:46;;;;;;;;;;;;;;;21.71;74.03;101101.47;5022862;28;19927;-56
2022/08/20 07:50:14;;;;;;;;;;;;;;;21.71;73.87;101105.97;5016195;28;19961;-57
2022/08/20 07:52:39;;;;;;;;;;;;;;;21.69;73.98;101106.13;5018504;28;19925;-57
2022/08/20 07:55:06;;;;;;;;;;;;;;;21.69;73.90;101114.16;5008537;28;19929;-59
2022/08/20 07:57:31;;;;;;;;;;;;;;;21.71;73.90;101114.00;5011691;28;19964;-57
2022/08/20 08:00:00;;;;;;;;;;;;;;;21.72;73.97;101115.69;5004289;28;19929;-57
2022/08/20 08:02:26;;;;;;;;;;;;;;;21.75;73.84;101112.69;5001529;28;20130;-59
2022/08/20 08:04:51;;;;;;;;;;;;;;;21.77;73.87;101121.44;4996673;28;19925;-59
2022/08/20 08:07:16;;;;;;;;;;;;;;;21.75;73.73;101118.91;4984913;28;20451;-59
2022/08/20 08:09:43;;;;;;;;;;;;;;;21.74;73.56;101122.59;5008704;28;20024;-59
2022/08/20 08:12:11;;;;;;;;;;;;;;;21.75;73.59;101118.91;5008756;28;19927;-57
2022/08/20 08:14:37;;;;;;;;;;;;;;;21.76;73.83;101119.75;5013735;28;19921;-58
2022/08/20 08:17:03;;;;;;;;;;;;;;;21.76;73.46;101127.78;5010583;28;20272;-56
2022/08/20 08:19:35;;;;;;;;;;;;;;;21.76;73.66;101128.63;5013045;28;20015;-56
2022/08/20 08:22:00;;;;;;;;;;;;;;;21.74;73.64;101124.41;5017214;28;20746;-57
2022/08/20 08:24:25;;;;;;;;;;;;;;;21.73;73.37;101120.03;5013789;28;19925;-56
2022/08/20 08:26:51;;;;;;;;;;;;;;;21.72;73.21;101123.72;5022840;28;19964;-59
2022/08/20 08:29:16;;;;;;;;;;;;;;;21.72;73.07;101129.06;5019688;28;19921;-56
2022/08/20 08:31:41;;;;;;;;;;;;;;;21.72;73.01;101129.06;5007158;28;19925;-58
2022/08/20 08:34:07;;;;;;;;;;;;;;;21.73;73.14;101130.75;5002854;28;19929;-61
2022/08/20 08:36:32;;;;;;;;;;;;;;;21.74;72.77;101127.09;5008865;28;20303;-58
2022/08/20 08:38:58;;;;;;;;;;;;;;;21.75;72.84;101132.31;4983273;28;19972;-57
2022/08/20 08:41:27;;;;;;;;;;;;;;;21.78;72.79;101136.50;5007131;28;19925;-57
2022/08/20 08:43:56;;;;;;;;;;;;;;;21.82;73.03;101135.22;5000105;28;20965;-59
2022/08/20 08:46:24;;;;;;;;;;;;;;;21.90;72.81;101140.63;5000728;28;19925;-59
2022/08/20 08:49:09;;;;;;;;;;;;;;;21.96;72.42;101146.38;5016811;28;20517;-58
2022/08/20 08:51:39;;;;;;;;;;;;;;;22.00;72.36;101145.91;5004961;28;19924;-57
2022/08/20 08:54:06;;;;;;;;;;;;;;;22.07;72.63;101140.78;4993560;28;19929;-58
2022/08/20 08:56:32;;;;;;;;;;;;;;;22.13;71.99;101137.50;4988674;28;19928;-58
2022/08/20 08:59:00;;;;;;;;;;;;;;;22.14;72.07;101138.31;4995055;28;19925;-58
2022/08/20 09:01:27;;;;;;;;;;;;;;;22.19;71.93;101141.38;5011408;28;19921;-60
2022/08/20 09:03:52;;;;;;;;;;;;;;;22.22;71.69;101144.59;5013593;28;20403;-58
2022/08/20 09:06:21;;;;;;;;;;;;;;;22.26;71.50;101136.25;5000042;28;20019;-57
2022/08/20 09:08:48;;;;;;;;;;;;;;;22.22;71.49;101133.88;5014804;28;19996;-57
2022/08/20 09:11:14;;;;;;;;;;;;;;;22.23;71.79;101148.94;5011422;28;20469;-57
2022/08/20 09:13:41;;;;;;;;;;;;;;;22.26;71.71;101144.28;5015267;28;19959;-60
2022/08/20 09:16:07;;;;;;;;;;;;;;;22.27;71.70;101154.00;5016447;28;20299;-58
2022/08/20 09:18:32;;;;;;;;;;;;;;;22.29;71.40;101149.34;5017019;28;20385;-61
2022/08/20 09:20:58;;;;;;;;;;;;;;;22.32;71.17;101159.72;5017512;28;19936;-58
2022/08/20 09:23:23;;;;;;;;;;;;;;;22.32;71.14;101162.41;5014656;28;21327;-57
2022/08/20 09:25:49;;;;;;;;;;;;;;;22.30;71.04;101165.25;5018855;28;19932;-61
2022/08/20 09:28:14;;;;;;;;;;;;;;;22.31;70.98;101160.75;5003750;28;19937;-59
2022/08/20 09:30:39;;;;;;;;;;;;;;;22.33;71.09;101164.09;5017003;28;19936;-58
2022/08/20 09:33:05;;;;;;;;;;;;;;;22.33;70.88;101156.91;5001819;28;19960;-60
2022/08/20 09:35:30;;;;;;;;;;;;;;;22.37;71.06;101152.94;5016090;28;20019;-57
2022/08/20 09:37:55;;;;;;;;;;;;;;;22.43;70.82;101169.41;5021921;28;19935;-58
2022/08/20 09:40:21;;;;;;;;;;;;;;;22.47;70.73;101155.50;5023153;28;19963;-58
2022/08/20 09:42:46;;;;;;;;;;;;;;;22.49;70.48;101161.56;5026727;28;20351;-59
2022/08/20 09:45:12;;;;;;;;;;;;;;;22.51;70.43;101161.44;5018582;28;19931;-59
2022/08/20 09:47:38;;;;;;;;;;;;;;;22.55;70.21;101161.94;5011500;28;20438;-58
2022/08/20 09:50:03;;;;;;;;;;;;;;;22.56;70.31;101155.59;5015799;28;19917;-57
2022/08/20 09:52:34;;;;;;;;;;;;;;;22.61;70.11;101164.00;5019405;28;19921;-58
2022/08/20 09:55:00;;;;;;;;;;;;;;;22.62;70.04;101162.97;5016940;28;20395;-59
2022/08/20 09:57:26;;;;;;;;;;;;;;;22.61;70.00;101156.78;4992771;28;19925;-60
2022/08/20 09:59:53;;;;;;;;;;;;;;;22.65;69.97;101165.34;4993366;28;20408;-62
2022/08/20 10:02:18;;;;;;;;;;;;;;;22.67;69.57;101160.69;4991038;28;19925;-60
2022/08/20 10:04:44;;;;;;;;;;;;;;;22.66;69.61;101164.34;4991313;28;19928;-56
2022/08/20 10:07:09;;;;;;;;;;;;;;;22.64;69.49;101156.47;4991803;28;19956;-59
2022/08/20 10:09:35;;;;;;;;;;;;;;;22.66;69.37;101153.63;4997105;28;20269;-59
2022/08/20 10:12:01;;;;;;;;;;;;;;;22.65;69.45;101154.63;4987405;28;19964;-59
2022/08/20 10:14:26;;;;;;;;;;;;;;;22.64;69.33;101150.25;4984081;28;20319;-59
2022/08/20 10:16:56;;;;;;;;;;;;;;;22.64;69.28;101150.25;4989525;28;20064;-56
2022/08/20 10:19:21;;;;;;;;;;;;;;;22.65;69.03;101160.00;4997484;28;20654;-58
2022/08/20 10:21:48;;;;;;;;;;;;;;;22.67;69.31;101158.00;5015457;28;19930;-59
2022/08/20 10:24:13;;;;;;;;;;;;;;;22.70;69.01;101152.31;5018995;28;20407;-57
2022/08/20 10:26:39;;;;;;;;;;;;;;;22.69;68.88;101147.94;5008501;28;19951;-56
2022/08/20 10:29:04;;;;;;;;;;;;;;;22.68;69.00;101151.63;4995089;28;19936;-57
2022/08/20 10:31:30;;;;;;;;;;;;;;;22.72;69.05;101152.16;4988117;28;19937;-59
2022/08/20 10:33:55;;;;;;;;;;;;;;;22.76;69.07;101153.53;4991293;28;19925;-59
2022/08/20 10:36:20;;;;;;;;;;;;;;;22.79;68.86;101153.22;4989571;28;20023;-59
2022/08/20 10:38:47;;;;;;;;;;;;;;;22.82;68.92;101152.91;4999194;28;19971;-59
2022/08/20 10:41:13;;;;;;;;;;;;;;;22.84;68.85;101153.56;4990514;28;19925;-61
2022/08/20 10:43:38;;;;;;;;;;;;;;;22.82;68.72;101156.41;4987013;28;19920;-57
2022/08/20 10:46:04;;;;;;;;;;;;;;;22.84;68.80;101154.41;4992980;28;20324;-55
2022/08/20 10:48:29;;;;;;;;;;;;;;;22.85;68.78;101152.56;4991034;28;19929;-57
2022/08/20 10:50:54;;;;;;;;;;;;;;;22.90;68.68;101160.16;4967014;28;19925;-61
2022/08/20 10:53:20;;;;;;;;;;;;;;;22.92;68.56;101158.97;4988796;28;22824;-56
2022/08/20 10:55:45;;;;;;;;;;;;;;;22.91;68.43;101162.66;4991371;28;19952;-59
2022/08/20 10:58:11;;;;;;;;;;;;;;;22.92;68.37;101163.50;4990754;28;20171;-59
2022/08/20 11:00:37;;;;;;;;;;;;;;;22.89;68.46;101161.16;5001090;28;20312;-61
2022/08/20 11:03:03;;;;;;;;;;;;;;;22.87;68.53;101160.47;5013081;28;19925;-59
2022/08/20 11:05:28;;;;;;;;;;;;;;;22.86;68.29;101156.09;4981785;28;20451;-60
2022/08/20 11:07:58;;;;;;;;;;;;;;;22.83;68.42;101160.78;4989705;28;19928;-59
2022/08/20 11:10:32;;;;;;;;;;;;;;;22.84;68.37;101161.59;5002443;28;20614;-59
2022/08/20 11:12:57;;;;;;;;;;;;;;;22.86;68.22;101159.59;4971498;28;20550;-60
2022/08/20 11:15:25;;;;;;;;;;;;;;;22.84;67.93;101157.09;4994066;28;20026;-62
2022/08/20 11:17:50;;;;;;;;;;;;;;;22.85;68.08;101157.91;4086566;28;10000330;-62
2022/08/20 11:20:20;;;;;;;;;;;;;;;22.88;67.82;101168.34;4966432;28;20680;-59
2022/08/20 11:22:45;;;;;;;;;;;;;;;22.90;67.66;101165.50;4965585;28;20384;-59
2022/08/20 11:25:11;;;;;;;;;;;;;;;22.92;67.49;101166.16;4968799;28;20407;-57
2022/08/20 11:27:39;;;;;;;;;;;;;;;22.93;67.50;101167.84;4969495;28;19951;-56
2022/08/20 11:30:05;;;;;;;;;;;;;;;22.95;67.35;101168.53;4969524;28;20092;-61
2022/08/20 11:32:31;;;;;;;;;;;;;;;22.98;67.51;101173.59;4965284;28;19922;-60
2022/08/20 11:34:56;;;;;;;;;;;;;;;23.04;67.40;101172.09;4967492;28;20313;-59
2022/08/20 11:37:23;;;;;;;;;;;;;;;23.07;67.31;101172.63;4961529;28;19925;-58
2022/08/20 11:39:49;;;;;;;;;;;;;;;23.12;67.38;101170.31;4963807;28;19929;-57
2022/08/20 11:42:14;;;;;;;;;;;;;;;23.18;67.20;101173.34;4974658;28;19921;-60
2022/08/20 11:44:39;;;;;;;;;;;;;;;23.16;67.13;101170.00;4956374;28;20000;-58
2022/08/20 11:47:06;;;;;;;;;;;;;;;23.14;67.11;101173.69;4960076;28;19933;-60
2022/08/20 11:49:35;;;;;;;;;;;;;;;23.12;66.95;101173.00;4960886;28;20391;-58
2022/08/20 11:52:01;;;;;;;;;;;;;;;23.10;66.76;101172.31;4958997;28;21076;-61
2022/08/20 11:54:31;;;;;;;;;;;;;;;23.10;67.05;101175.00;4958247;28;20016;-59
2022/08/20 11:56:56;;;;;;;;;;;;;;;23.12;67.18;101174.84;4949456;28;20062;-59
2022/08/20 11:59:22;;;;;;;;;;;;;;;23.12;67.03;101173.00;4957493;28;19930;-58
2022/08/20 12:01:48;;;;;;;;;;;;;;;23.13;66.90;101180.03;4967105;28;20148;-57
2022/08/20 12:04:13;;;;;;;;;;;;;;;23.15;66.72;101177.19;4970412;28;19933;-58
2022/08/20 12:06:38;;;;;;;;;;;;;;;23.18;66.76;101184.09;4957115;28;19933;-60
2022/08/20 12:09:04;;;;;;;;;;;;;;;23.19;66.51;101175.03;4957738;28;20345;-62
2022/08/20 12:11:29;;;;;;;;;;;;;;;23.20;66.43;101182.94;4964949;28;20364;-59
2022/08/20 12:13:54;;;;;;;;;;;;;;;23.24;66.35;101187.00;4972995;28;19933;-59
2022/08/20 12:16:20;;;;;;;;;;;;;;;23.27;65.93;101170.59;4974815;28;19940;-58
2022/08/20 12:18:45;;;;;;;;;;;;;;;23.35;65.65;101179.66;4971256;28;20414;-58
2022/08/20 12:21:11;;;;;;;;;;;;;;;23.41;65.78;101174.47;4974443;28;19968;-59
2022/08/20 12:23:36;;;;;;;;;;;;;;;23.48;65.55;101180.03;4976253;28;19925;-58
2022/08/20 12:26:02;;;;;;;;;;;;;;;23.56;65.24;101176.53;4976385;28;19975;-56
2022/08/20 12:28:29;;;;;;;;;;;;;;;23.60;65.14;101172.50;4981202;28;19948;-57
2022/08/20 12:30:54;;;;;;;;;;;;;;;23.65;64.69;101175.56;4978577;28;19979;-58
2022/08/20 12:33:19;;;;;;;;;;;;;;;23.69;64.83;101186.81;4978974;28;19934;-57
2022/08/20 12:35:45;;;;;;;;;;;;;;;23.73;64.60;101188.16;4983136;28;20388;-58
2022/08/20 12:38:10;;;;;;;;;;;;;;;23.77;64.50;101184.13;4978265;28;20008;-58